Terminal Aerodrome Forecast
Issued by NWS St Louis, MO

Home | Current Version | Previous Version | Text Only | Print | Product List | Glossary On
Versions: 1 2 3 4 5 6 7 8 9 10 11 12 13 14 15 16 17 18 19 20 21
000
FTUS43 KLSX 181940 AAA
TAFCOU
TAF AMD
KCOU 181940Z 1820/1918 33021G34KT 6SM -SHRA OVC018
     FM182100 32020G32KT P6SM BKN080
     FM182200 32018G33KT P6SM SCT200
     FM190000 31015G21KT P6SM SKC
     FM190800 31009KT P6SM SKC=

USA.gov is the U.S. government's official web portal to all federal, state and local government web resources and services.